sensor_id;sensor_type;location;lat;lon;timestamp;temperature;humidity
32626;DHT22;19038;50.922;11.880;2022-10-16T00:01:49;18.30;85.50
32626;DHT22;19038;50.922;11.880;2022-10-16T00:06:49;18.30;85.50
32626;DHT22;19038;50.922;11.880;2022-10-16T00:11:49;18.30;85.40
32626;DHT22;19038;50.922;11.880;2022-10-16T00:16:49;18.30;85.50
32626;DHT22;19038;50.922;11.880;2022-10-16T00:21:49;18.20;85.40
32626;DHT22;19038;50.922;11.880;2022-10-16T00:26:50;18.20;85.40
32626;DHT22;19038;50.922;11.880;2022-10-16T00:31:49;18.20;85.40
32626;DHT22;19038;50.922;11.880;2022-10-16T00:36:49;18.10;85.20
32626;DHT22;19038;50.922;11.880;2022-10-16T00:41:50;18.10;85.30
32626;DHT22;19038;50.922;11.880;2022-10-16T00:46:49;18.10;85.30
32626;DHT22;19038;50.922;11.880;2022-10-16T00:51:50;18.00;85.10
32626;DHT22;19038;50.922;11.880;2022-10-16T00:56:50;18.00;85.40
32626;DHT22;19038;50.922;11.880;2022-10-16T01:01:49;18.00;85.00
32626;DHT22;19038;50.922;11.880;2022-10-16T01:11:54;17.90;84.80
32626;DHT22;19038;50.922;11.880;2022-10-16T01:16:53;17.80;84.70
32626;DHT22;19038;50.922;11.880;2022-10-16T01:21:49;17.70;84.70
32626;DHT22;19038;50.922;11.880;2022-10-16T01:31:52;17.60;85.40
32626;DHT22;19038;50.922;11.880;2022-10-16T01:36:52;17.50;84.70
32626;DHT22;19038;50.922;11.880;2022-10-16T01:41:52;17.40;84.70
32626;DHT22;19038;50.922;11.880;2022-10-16T01:46:50;17.40;84.60
32626;DHT22;19038;50.922;11.880;2022-10-16T01:51:51;17.30;84.50
32626;DHT22;19038;50.922;11.880;2022-10-16T01:56:49;17.20;84.60
32626;DHT22;19038;50.922;11.880;2022-10-16T02:01:50;17.20;84.40
32626;DHT22;19038;50.922;11.880;2022-10-16T02:06:49;17.20;84.50
32626;DHT22;19038;50.922;11.880;2022-10-16T02:11:50;17.10;84.20
32626;DHT22;19038;50.922;11.880;2022-10-16T02:16:49;17.00;84.10
32626;DHT22;19038;50.922;11.880;2022-10-16T02:21:51;17.00;84.40
32626;DHT22;19038;50.922;11.880;2022-10-16T02:31:50;16.80;84.40
32626;DHT22;19038;50.922;11.880;2022-10-16T02:36:50;16.80;84.40
32626;DHT22;19038;50.922;11.880;2022-10-16T02:41:49;16.80;85.30
32626;DHT22;19038;50.922;11.880;2022-10-16T02:46:50;16.80;84.40
32626;DHT22;19038;50.922;11.880;2022-10-16T02:51:50;16.70;84.40
32626;DHT22;19038;50.922;11.880;2022-10-16T02:56:50;16.60;84.30
32626;DHT22;19038;50.922;11.880;2022-10-16T03:01:50;16.60;84.20
32626;DHT22;19038;50.922;11.880;2022-10-16T03:06:50;16.60;84.10
32626;DHT22;19038;50.922;11.880;2022-10-16T03:11:50;16.60;84.10
32626;DHT22;19038;50.922;11.880;2022-10-16T03:16:50;16.50;84.20
32626;DHT22;19038;50.922;11.880;2022-10-16T03:21:50;16.50;84.40
32626;DHT22;19038;50.922;11.880;2022-10-16T03:26:50;16.40;84.30
32626;DHT22;19038;50.922;11.880;2022-10-16T03:31:50;16.40;84.40
32626;DHT22;19038;50.922;11.880;2022-10-16T03:36:50;16.40;84.70
32626;DHT22;19038;50.922;11.880;2022-10-16T03:41:50;16.40;84.80
32626;DHT22;19038;50.922;11.880;2022-10-16T03:46:50;16.40;84.80
32626;DHT22;19038;50.922;11.880;2022-10-16T03:51:50;16.40;84.70
32626;DHT22;19038;50.922;11.880;2022-10-16T03:56:50;16.40;84.80
32626;DHT22;19038;50.922;11.880;2022-10-16T04:01:50;16.40;84.90
32626;DHT22;19038;50.922;11.880;2022-10-16T04:06:50;16.40;84.80
32626;DHT22;19038;50.922;11.880;2022-10-16T04:11:50;16.40;84.80
32626;DHT22;19038;50.922;11.880;2022-10-16T04:16:50;16.30;85.00
32626;DHT22;19038;50.922;11.880;2022-10-16T04:21:50;16.40;84.90
32626;DHT22;19038;50.922;11.880;2022-10-16T04:26:50;16.30;85.20
32626;DHT22;19038;50.922;11.880;2022-10-16T04:31:50;16.30;85.30
32626;DHT22;19038;50.922;11.880;2022-10-16T04:36:50;16.30;84.90
32626;DHT22;19038;50.922;11.880;2022-10-16T04:41:50;16.30;84.90
32626;DHT22;19038;50.922;11.880;2022-10-16T04:46:50;16.20;84.90
32626;DHT22;19038;50.922;11.880;2022-10-16T04:51:50;16.20;84.80
32626;DHT22;19038;50.922;11.880;2022-10-16T04:56:50;16.20;85.00
32626;DHT22;19038;50.922;11.880;2022-10-16T05:01:50;16.20;85.00
32626;DHT22;19038;50.922;11.880;2022-10-16T05:06:50;16.10;85.10
32626;DHT22;19038;50.922;11.880;2022-10-16T05:11:50;16.10;85.10
32626;DHT22;19038;50.922;11.880;2022-10-16T05:16:50;16.10;85.30
32626;DHT22;19038;50.922;11.880;2022-10-16T05:21:50;16.10;85.60
32626;DHT22;19038;50.922;11.880;2022-10-16T05:26:50;16.10;85.60
32626;DHT22;19038;50.922;11.880;2022-10-16T05:31:51;16.10;85.60
32626;DHT22;19038;50.922;11.880;2022-10-16T05:36:50;16.10;85.60
32626;DHT22;19038;50.922;11.880;2022-10-16T05:41:50;16.10;85.80
32626;DHT22;19038;50.922;11.880;2022-10-16T05:46:50;16.10;85.90
32626;DHT22;19038;50.922;11.880;2022-10-16T05:51:50;16.10;86.20
32626;DHT22;19038;50.922;11.880;2022-10-16T05:56:50;16.10;86.20
32626;DHT22;19038;50.922;11.880;2022-10-16T06:01:50;16.10;86.40
32626;DHT22;19038;50.922;11.880;2022-10-16T06:06:50;16.10;86.40
32626;DHT22;19038;50.922;11.880;2022-10-16T06:11:50;16.10;86.60
32626;DHT22;19038;50.922;11.880;2022-10-16T06:16:50;16.10;86.80
32626;DHT22;19038;50.922;11.880;2022-10-16T06:21:50;16.20;87.20
32626;DHT22;19038;50.922;11.880;2022-10-16T06:26:50;16.20;87.40
32626;DHT22;19038;50.922;11.880;2022-10-16T06:31:50;16.30;87.60
32626;DHT22;19038;50.922;11.880;2022-10-16T06:36:50;16.40;88.80
32626;DHT22;19038;50.922;11.880;2022-10-16T06:41:50;16.50;89.00
32626;DHT22;19038;50.922;11.880;2022-10-16T06:46:50;16.60;89.50
32626;DHT22;19038;50.922;11.880;2022-10-16T06:51:50;16.70;90.00
32626;DHT22;19038;50.922;11.880;2022-10-16T06:56:50;16.90;90.00
32626;DHT22;19038;50.922;11.880;2022-10-16T07:01:50;16.90;90.40
32626;DHT22;19038;50.922;11.880;2022-10-16T07:06:50;17.00;90.70
32626;DHT22;19038;50.922;11.880;2022-10-16T07:11:50;17.20;90.60
32626;DHT22;19038;50.922;11.880;2022-10-16T07:16:50;17.30;90.50
32626;DHT22;19038;50.922;11.880;2022-10-16T07:21:50;17.30;90.40
32626;DHT22;19038;50.922;11.880;2022-10-16T07:26:50;17.40;90.30
32626;DHT22;19038;50.922;11.880;2022-10-16T07:31:50;17.50;90.40
32626;DHT22;19038;50.922;11.880;2022-10-16T07:36:50;17.50;90.30
32626;DHT22;19038;50.922;11.880;2022-10-16T07:41:50;17.60;90.10
32626;DHT22;19038;50.922;11.880;2022-10-16T07:46:50;17.60;90.10
32626;DHT22;19038;50.922;11.880;2022-10-16T07:51:50;17.70;90.20
32626;DHT22;19038;50.922;11.880;2022-10-16T07:56:50;17.70;90.10
32626;DHT22;19038;50.922;11.880;2022-10-16T08:01:50;17.90;90.10
32626;DHT22;19038;50.922;11.880;2022-10-16T08:12:14;18.00;90.10
32626;DHT22;19038;50.922;11.880;2022-10-16T08:17:15;18.10;90.10
32626;DHT22;19038;50.922;11.880;2022-10-16T08:22:15;18.10;90.00
32626;DHT22;19038;50.922;11.880;2022-10-16T08:27:14;18.20;90.00
32626;DHT22;19038;50.922;11.880;2022-10-16T08:32:14;18.20;90.00
32626;DHT22;19038;50.922;11.880;2022-10-16T08:37:14;18.30;90.20
32626;DHT22;19038;50.922;11.880;2022-10-16T08:42:20;18.40;90.10
32626;DHT22;19038;50.922;11.880;2022-10-16T08:47:18;18.50;90.10
32626;DHT22;19038;50.922;11.880;2022-10-16T08:52:14;18.60;90.10
32626;DHT22;19038;50.922;11.880;2022-10-16T08:57:19;18.60;90.00
32626;DHT22;19038;50.922;11.880;2022-10-16T09:12:17;18.90;89.70
32626;DHT22;19038;50.922;11.880;2022-10-16T09:17:20;18.90;89.60
32626;DHT22;19038;50.922;11.880;2022-10-16T09:22:16;19.10;89.10
32626;DHT22;19038;50.922;11.880;2022-10-16T09:27:15;19.10;88.70
32626;DHT22;19038;50.922;11.880;2022-10-16T09:32:15;19.20;88.70
32626;DHT22;19038;50.922;11.880;2022-10-16T09:37:16;19.20;88.60
32626;DHT22;19038;50.922;11.880;2022-10-16T09:42:16;19.30;88.50
32626;DHT22;19038;50.922;11.880;2022-10-16T09:47:15;19.30;88.10
32626;DHT22;19038;50.922;11.880;2022-10-16T09:52:14;19.30;88.20
32626;DHT22;19038;50.922;11.880;2022-10-16T09:57:14;19.50;87.80
32626;DHT22;19038;50.922;11.880;2022-10-16T10:02:15;19.60;87.10
32626;DHT22;19038;50.922;11.880;2022-10-16T10:07:16;19.60;86.40
32626;DHT22;19038;50.922;11.880;2022-10-16T10:17:16;19.70;86.20
32626;DHT22;19038;50.922;11.880;2022-10-16T10:22:19;19.70;86.10
32626;DHT22;19038;50.922;11.880;2022-10-16T10:27:15;19.80;86.20
32626;DHT22;19038;50.922;11.880;2022-10-16T10:32:21;19.80;85.80
32626;DHT22;19038;50.922;11.880;2022-10-16T10:37:51;19.90;86.00
32626;DHT22;19038;50.922;11.880;2022-10-16T10:42:51;20.00;85.80
32626;DHT22;19038;50.922;11.880;2022-10-16T10:47:48;20.10;85.80
32626;DHT22;19038;50.922;11.880;2022-10-16T10:52:53;20.30;84.70
32626;DHT22;19038;50.922;11.880;2022-10-16T11:12:49;20.70;83.50
32626;DHT22;19038;50.922;11.880;2022-10-16T11:17:48;20.70;83.50
32626;DHT22;19038;50.922;11.880;2022-10-16T11:22:49;20.80;83.30
32626;DHT22;19038;50.922;11.880;2022-10-16T11:37:46;21.00;82.50
32626;DHT22;19038;50.922;11.880;2022-10-16T11:42:48;21.10;82.80
32626;DHT22;19038;50.922;11.880;2022-10-16T11:47:51;21.10;82.40
32626;DHT22;19038;50.922;11.880;2022-10-16T11:52:51;21.10;82.00
32626;DHT22;19038;50.922;11.880;2022-10-16T11:57:49;21.00;81.90
32626;DHT22;19038;50.922;11.880;2022-10-16T12:02:54;21.10;81.80
32626;DHT22;19038;50.922;11.880;2022-10-16T12:07:50;21.00;81.70
32626;DHT22;19038;50.922;11.880;2022-10-16T12:12:46;21.00;81.60
32626;DHT22;19038;50.922;11.880;2022-10-16T12:17:48;21.10;81.50
32626;DHT22;19038;50.922;11.880;2022-10-16T12:22:47;21.10;81.70
32626;DHT22;19038;50.922;11.880;2022-10-16T12:27:53;21.10;81.60
32626;DHT22;19038;50.922;11.880;2022-10-16T12:32:52;21.10;82.00
32626;DHT22;19038;50.922;11.880;2022-10-16T12:37:46;21.10;82.50
32626;DHT22;19038;50.922;11.880;2022-10-16T12:42:46;21.20;82.80
32626;DHT22;19038;50.922;11.880;2022-10-16T12:47:48;21.30;82.60
32626;DHT22;19038;50.922;11.880;2022-10-16T12:52:46;21.30;82.20
32626;DHT22;19038;50.922;11.880;2022-10-16T13:02:49;21.50;81.10
32626;DHT22;19038;50.922;11.880;2022-10-16T13:07:53;21.50;80.70
32626;DHT22;19038;50.922;11.880;2022-10-16T13:12:52;21.40;80.50
32626;DHT22;19038;50.922;11.880;2022-10-16T13:22:51;21.40;80.30
32626;DHT22;19038;50.922;11.880;2022-10-16T13:27:52;21.40;80.30
32626;DHT22;19038;50.922;11.880;2022-10-16T13:32:47;21.40;80.00
32626;DHT22;19038;50.922;11.880;2022-10-16T13:42:47;21.50;80.70
32626;DHT22;19038;50.922;11.880;2022-10-16T13:47:47;21.50;78.50
32626;DHT22;19038;50.922;11.880;2022-10-16T13:52:47;21.50;79.10
32626;DHT22;19038;50.922;11.880;2022-10-16T13:57:46;21.40;78.80
32626;DHT22;19038;50.922;11.880;2022-10-16T14:02:50;21.40;78.10
32626;DHT22;19038;50.922;11.880;2022-10-16T14:07:48;21.40;78.80
32626;DHT22;19038;50.922;11.880;2022-10-16T14:12:54;21.40;78.80
32626;DHT22;19038;50.922;11.880;2022-10-16T14:17:49;21.50;78.80
32626;DHT22;19038;50.922;11.880;2022-10-16T14:22:47;21.50;79.50
32626;DHT22;19038;50.922;11.880;2022-10-16T14:37:50;21.40;79.60
32626;DHT22;19038;50.922;11.880;2022-10-16T14:42:47;21.40;79.60
32626;DHT22;19038;50.922;11.880;2022-10-16T14:47:49;21.40;79.60
32626;DHT22;19038;50.922;11.880;2022-10-16T14:52:47;21.40;79.90
32626;DHT22;19038;50.922;11.880;2022-10-16T14:57:47;21.40;79.60
32626;DHT22;19038;50.922;11.880;2022-10-16T15:02:47;21.40;79.40
32626;DHT22;19038;50.922;11.880;2022-10-16T15:07:47;21.30;79.50
32626;DHT22;19038;50.922;11.880;2022-10-16T15:12:47;21.30;79.70
32626;DHT22;19038;50.922;11.880;2022-10-16T15:17:47;21.20;79.90
32626;DHT22;19038;50.922;11.880;2022-10-16T15:22:47;21.20;79.90
32626;DHT22;19038;50.922;11.880;2022-10-16T15:27:47;21.20;79.80
32626;DHT22;19038;50.922;11.880;2022-10-16T15:32:47;21.20;79.90
32626;DHT22;19038;50.922;11.880;2022-10-16T15:37:47;21.20;80.00
32626;DHT22;19038;50.922;11.880;2022-10-16T15:42:47;21.20;80.00
32626;DHT22;19038;50.922;11.880;2022-10-16T15:47:47;21.10;80.10
32626;DHT22;19038;50.922;11.880;2022-10-16T15:52:47;21.00;80.30
32626;DHT22;19038;50.922;11.880;2022-10-16T15:57:47;21.00;80.50
32626;DHT22;19038;50.922;11.880;2022-10-16T16:07:47;20.90;80.40
32626;DHT22;19038;50.922;11.880;2022-10-16T16:12:47;20.80;80.40
32626;DHT22;19038;50.922;11.880;2022-10-16T16:17:47;20.80;80.30
32626;DHT22;19038;50.922;11.880;2022-10-16T16:22:47;20.80;80.20
32626;DHT22;19038;50.922;11.880;2022-10-16T16:27:47;20.70;80.20
32626;DHT22;19038;50.922;11.880;2022-10-16T16:32:47;20.60;80.20
32626;DHT22;19038;50.922;11.880;2022-10-16T16:37:47;20.50;80.20
32626;DHT22;19038;50.922;11.880;2022-10-16T16:42:47;20.40;80.30
32626;DHT22;19038;50.922;11.880;2022-10-16T16:47:47;20.30;80.20
32626;DHT22;19038;50.922;11.880;2022-10-16T16:52:47;20.20;80.20
32626;DHT22;19038;50.922;11.880;2022-10-16T16:57:48;20.10;80.20
32626;DHT22;19038;50.922;11.880;2022-10-16T17:02:48;20.00;80.20
32626;DHT22;19038;50.922;11.880;2022-10-16T17:07:47;19.90;80.20
32626;DHT22;19038;50.922;11.880;2022-10-16T17:12:47;19.80;80.00
32626;DHT22;19038;50.922;11.880;2022-10-16T17:17:47;19.70;80.10
32626;DHT22;19038;50.922;11.880;2022-10-16T17:22:47;19.50;79.90
32626;DHT22;19038;50.922;11.880;2022-10-16T17:27:47;19.40;80.10
32626;DHT22;19038;50.922;11.880;2022-10-16T17:32:47;19.30;80.40
32626;DHT22;19038;50.922;11.880;2022-10-16T17:37:47;19.20;80.50
32626;DHT22;19038;50.922;11.880;2022-10-16T17:42:47;19.20;80.80
32626;DHT22;19038;50.922;11.880;2022-10-16T17:47:47;19.10;81.00
32626;DHT22;19038;50.922;11.880;2022-10-16T17:52:47;19.10;81.20
32626;DHT22;19038;50.922;11.880;2022-10-16T17:57:47;19.10;81.20
32626;DHT22;19038;50.922;11.880;2022-10-16T18:02:48;19.00;81.50
32626;DHT22;19038;50.922;11.880;2022-10-16T18:07:47;19.00;81.80
32626;DHT22;19038;50.922;11.880;2022-10-16T18:12:47;18.90;82.10
32626;DHT22;19038;50.922;11.880;2022-10-16T18:17:47;18.90;82.10
32626;DHT22;19038;50.922;11.880;2022-10-16T18:22:47;18.90;82.70
32626;DHT22;19038;50.922;11.880;2022-10-16T18:27:47;18.90;82.70
32626;DHT22;19038;50.922;11.880;2022-10-16T18:32:47;18.90;82.90
32626;DHT22;19038;50.922;11.880;2022-10-16T18:37:47;18.90;83.30
32626;DHT22;19038;50.922;11.880;2022-10-16T18:42:47;18.80;83.30
32626;DHT22;19038;50.922;11.880;2022-10-16T18:47:47;18.80;83.40
32626;DHT22;19038;50.922;11.880;2022-10-16T18:52:47;18.80;83.30
32626;DHT22;19038;50.922;11.880;2022-10-16T18:57:47;18.80;83.60
32626;DHT22;19038;50.922;11.880;2022-10-16T19:02:47;18.70;83.30
32626;DHT22;19038;50.922;11.880;2022-10-16T19:07:47;18.70;83.40
32626;DHT22;19038;50.922;11.880;2022-10-16T19:12:47;18.60;83.10
32626;DHT22;19038;50.922;11.880;2022-10-16T19:17:47;18.60;82.90
32626;DHT22;19038;50.922;11.880;2022-10-16T19:22:47;18.50;82.90
32626;DHT22;19038;50.922;11.880;2022-10-16T19:27:49;18.50;82.80
32626;DHT22;19038;50.922;11.880;2022-10-16T19:32:47;18.40;82.70
32626;DHT22;19038;50.922;11.880;2022-10-16T19:37:48;18.30;82.60
32626;DHT22;19038;50.922;11.880;2022-10-16T19:42:47;18.20;82.50
32626;DHT22;19038;50.922;11.880;2022-10-16T19:47:47;18.20;82.80
32626;DHT22;19038;50.922;11.880;2022-10-16T19:52:47;18.10;82.40
32626;DHT22;19038;50.922;11.880;2022-10-16T19:57:47;18.00;82.50
32626;DHT22;19038;50.922;11.880;2022-10-16T20:02:47;18.00;82.40
32626;DHT22;19038;50.922;11.880;2022-10-16T20:07:47;17.90;82.30
32626;DHT22;19038;50.922;11.880;2022-10-16T20:12:47;17.80;82.10
32626;DHT22;19038;50.922;11.880;2022-10-16T20:17:47;17.70;82.20
32626;DHT22;19038;50.922;11.880;2022-10-16T20:22:47;17.60;82.10
32626;DHT22;19038;50.922;11.880;2022-10-16T20:27:47;17.50;82.20
32626;DHT22;19038;50.922;11.880;2022-10-16T20:32:47;17.50;82.10
32626;DHT22;19038;50.922;11.880;2022-10-16T20:37:47;17.40;82.00
32626;DHT22;19038;50.922;11.880;2022-10-16T20:42:47;17.30;82.10
32626;DHT22;19038;50.922;11.880;2022-10-16T20:47:47;17.30;82.20
32626;DHT22;19038;50.922;11.880;2022-10-16T20:52:47;17.20;82.10
32626;DHT22;19038;50.922;11.880;2022-10-16T20:57:47;17.20;82.10
32626;DHT22;19038;50.922;11.880;2022-10-16T21:02:48;17.20;82.30
32626;DHT22;19038;50.922;11.880;2022-10-16T21:07:47;17.10;81.80
32626;DHT22;19038;50.922;11.880;2022-10-16T21:12:47;17.00;81.80
32626;DHT22;19038;50.922;11.880;2022-10-16T21:17:47;16.90;81.80
32626;DHT22;19038;50.922;11.880;2022-10-16T21:22:47;16.80;81.90
32626;DHT22;19038;50.922;11.880;2022-10-16T21:27:47;16.80;81.90
32626;DHT22;19038;50.922;11.880;2022-10-16T21:32:47;16.80;81.90
32626;DHT22;19038;50.922;11.880;2022-10-16T21:37:47;16.70;81.90
32626;DHT22;19038;50.922;11.880;2022-10-16T21:42:47;16.70;81.80
32626;DHT22;19038;50.922;11.880;2022-10-16T21:47:47;16.70;82.00
32626;DHT22;19038;50.922;11.880;2022-10-16T21:52:47;16.60;82.20
32626;DHT22;19038;50.922;11.880;2022-10-16T21:57:47;16.60;82.20
32626;DHT22;19038;50.922;11.880;2022-10-16T22:02:47;16.60;82.40
32626;DHT22;19038;50.922;11.880;2022-10-16T22:07:47;16.50;82.30
32626;DHT22;19038;50.922;11.880;2022-10-16T22:12:47;16.60;82.30
32626;DHT22;19038;50.922;11.880;2022-10-16T22:17:47;16.50;82.30
32626;DHT22;19038;50.922;11.880;2022-10-16T22:22:47;16.50;82.40
32626;DHT22;19038;50.922;11.880;2022-10-16T22:27:47;16.40;82.20
32626;DHT22;19038;50.922;11.880;2022-10-16T22:32:47;16.40;82.30
32626;DHT22;19038;50.922;11.880;2022-10-16T22:37:47;16.40;82.30
32626;DHT22;19038;50.922;11.880;2022-10-16T22:42:47;16.40;82.40
32626;DHT22;19038;50.922;11.880;2022-10-16T22:47:47;16.30;82.20
32626;DHT22;19038;50.922;11.880;2022-10-16T22:52:47;16.30;82.40
32626;DHT22;19038;50.922;11.880;2022-10-16T22:57:47;16.30;82.40
32626;DHT22;19038;50.922;11.880;2022-10-16T23:02:47;16.30;82.30
32626;DHT22;19038;50.922;11.880;2022-10-16T23:07:47;16.20;82.20
32626;DHT22;19038;50.922;11.880;2022-10-16T23:12:47;16.20;82.30
32626;DHT22;19038;50.922;11.880;2022-10-16T23:17:47;16.10;82.20
32626;DHT22;19038;50.922;11.880;2022-10-16T23:22:47;16.10;82.10
32626;DHT22;19038;50.922;11.880;2022-10-16T23:27:47;16.00;82.10
32626;DHT22;19038;50.922;11.880;2022-10-16T23:32:47;16.00;81.90
32626;DHT22;19038;50.922;11.880;2022-10-16T23:37:47;15.90;81.80
32626;DHT22;19038;50.922;11.880;2022-10-16T23:42:47;15.90;81.70
32626;DHT22;19038;50.922;11.880;2022-10-16T23:47:47;15.90;81.90
32626;DHT22;19038;50.922;11.880;2022-10-16T23:52:47;15.80;81.70
32626;DHT22;19038;50.922;11.880;2022-10-16T23:57:47;15.70;81.50
